sensor_id;sensor_type;location;lat;lon;timestamp;temperature;humidity
64855;DHT22;51321;50.428;8.378;2023-06-10T00:01:25;17.60;99.90
64855;DHT22;51321;50.428;8.378;2023-06-10T00:04:07;17.50;99.90
64855;DHT22;51321;50.428;8.378;2023-06-10T00:06:48;17.40;99.90
64855;DHT22;51321;50.428;8.378;2023-06-10T00:09:30;17.30;99.90
64855;DHT22;51321;50.428;8.378;2023-06-10T00:12:13;17.30;99.90
64855;DHT22;51321;50.428;8.378;2023-06-10T00:14:57;17.40;99.90
64855;DHT22;51321;50.428;8.378;2023-06-10T00:17:38;17.40;99.90
64855;DHT22;51321;50.428;8.378;2023-06-10T00:20:20;17.30;99.90
64855;DHT22;51321;50.428;8.378;2023-06-10T00:23:01;17.30;99.90
64855;DHT22;51321;50.428;8.378;2023-06-10T00:25:48;17.20;99.90
64855;DHT22;51321;50.428;8.378;2023-06-10T00:28:32;17.20;99.90
64855;DHT22;51321;50.428;8.378;2023-06-10T00:31:14;17.00;99.90
64855;DHT22;51321;50.428;8.378;2023-06-10T00:33:55;17.00;99.90
64855;DHT22;51321;50.428;8.378;2023-06-10T00:36:37;16.80;99.90
64855;DHT22;51321;50.428;8.378;2023-06-10T00:39:18;16.70;99.90
64855;DHT22;51321;50.428;8.378;2023-06-10T00:42:00;16.60;99.90
64855;DHT22;51321;50.428;8.378;2023-06-10T00:44:42;16.60;99.90
64855;DHT22;51321;50.428;8.378;2023-06-10T00:47:24;16.50;99.90
64855;DHT22;51321;50.428;8.378;2023-06-10T00:50:06;16.50;99.90
64855;DHT22;51321;50.428;8.378;2023-06-10T00:52:47;16.50;99.90
64855;DHT22;51321;50.428;8.378;2023-06-10T00:55:30;16.50;99.90
64855;DHT22;51321;50.428;8.378;2023-06-10T00:58:12;16.60;99.90
64855;DHT22;51321;50.428;8.378;2023-06-10T01:00:55;16.50;99.90
64855;DHT22;51321;50.428;8.378;2023-06-10T01:03:40;16.30;99.90
64855;DHT22;51321;50.428;8.378;2023-06-10T01:06:29;16.30;99.90
64855;DHT22;51321;50.428;8.378;2023-06-10T01:09:21;16.20;99.90
64855;DHT22;51321;50.428;8.378;2023-06-10T01:12:08;16.10;99.90
64855;DHT22;51321;50.428;8.378;2023-06-10T01:14:51;16.00;99.90
64855;DHT22;51321;50.428;8.378;2023-06-10T01:17:38;16.00;99.90
64855;DHT22;51321;50.428;8.378;2023-06-10T01:20:32;16.00;99.90
64855;DHT22;51321;50.428;8.378;2023-06-10T01:23:15;15.90;99.90
64855;DHT22;51321;50.428;8.378;2023-06-10T01:26:02;15.90;99.90
64855;DHT22;51321;50.428;8.378;2023-06-10T01:28:48;15.90;99.90
64855;DHT22;51321;50.428;8.378;2023-06-10T01:31:38;15.90;99.90
64855;DHT22;51321;50.428;8.378;2023-06-10T01:34:23;15.90;99.90
64855;DHT22;51321;50.428;8.378;2023-06-10T01:37:05;15.90;99.90
64855;DHT22;51321;50.428;8.378;2023-06-10T01:39:48;15.80;99.90
64855;DHT22;51321;50.428;8.378;2023-06-10T01:42:30;15.90;99.90
64855;DHT22;51321;50.428;8.378;2023-06-10T01:45:11;15.80;99.90
64855;DHT22;51321;50.428;8.378;2023-06-10T01:47:52;15.80;99.90
64855;DHT22;51321;50.428;8.378;2023-06-10T01:50:33;15.80;99.90
64855;DHT22;51321;50.428;8.378;2023-06-10T01:53:14;15.80;99.90
64855;DHT22;51321;50.428;8.378;2023-06-10T01:55:58;15.90;99.90
64855;DHT22;51321;50.428;8.378;2023-06-10T01:58:42;15.80;99.90
64855;DHT22;51321;50.428;8.378;2023-06-10T02:01:23;15.70;99.90
64855;DHT22;51321;50.428;8.378;2023-06-10T02:04:04;15.70;99.90
64855;DHT22;51321;50.428;8.378;2023-06-10T02:06:45;15.50;99.90
64855;DHT22;51321;50.428;8.378;2023-06-10T02:09:27;15.50;99.90
64855;DHT22;51321;50.428;8.378;2023-06-10T02:12:12;15.50;99.90
64855;DHT22;51321;50.428;8.378;2023-06-10T02:14:54;15.40;99.90
64855;DHT22;51321;50.428;8.378;2023-06-10T02:17:34;15.60;99.90
64855;DHT22;51321;50.428;8.378;2023-06-10T02:20:17;15.60;99.90
64855;DHT22;51321;50.428;8.378;2023-06-10T02:22:59;15.70;99.90
64855;DHT22;51321;50.428;8.378;2023-06-10T02:25:40;15.60;99.90
64855;DHT22;51321;50.428;8.378;2023-06-10T02:28:23;15.50;99.90
64855;DHT22;51321;50.428;8.378;2023-06-10T02:31:04;15.50;99.90
64855;DHT22;51321;50.428;8.378;2023-06-10T02:33:45;15.30;99.90
64855;DHT22;51321;50.428;8.378;2023-06-10T02:36:26;15.30;99.90
64855;DHT22;51321;50.428;8.378;2023-06-10T02:39:09;15.30;99.90
64855;DHT22;51321;50.428;8.378;2023-06-10T02:41:50;15.20;99.90
64855;DHT22;51321;50.428;8.378;2023-06-10T02:44:32;15.00;99.90
64855;DHT22;51321;50.428;8.378;2023-06-10T02:47:13;14.90;99.90
64855;DHT22;51321;50.428;8.378;2023-06-10T02:49:55;14.90;99.90
64855;DHT22;51321;50.428;8.378;2023-06-10T02:52:36;14.90;99.90
64855;DHT22;51321;50.428;8.378;2023-06-10T02:55:18;14.90;99.90
64855;DHT22;51321;50.428;8.378;2023-06-10T02:58:05;15.10;99.90
64855;DHT22;51321;50.428;8.378;2023-06-10T03:00:48;15.10;99.90
64855;DHT22;51321;50.428;8.378;2023-06-10T03:03:29;15.10;99.90
64855;DHT22;51321;50.428;8.378;2023-06-10T03:06:20;15.20;99.90
64855;DHT22;51321;50.428;8.378;2023-06-10T03:09:04;15.10;99.90
64855;DHT22;51321;50.428;8.378;2023-06-10T03:11:47;14.90;99.90
64855;DHT22;51321;50.428;8.378;2023-06-10T03:14:30;14.70;99.90
64855;DHT22;51321;50.428;8.378;2023-06-10T03:17:12;14.60;99.90
64855;DHT22;51321;50.428;8.378;2023-06-10T03:19:56;14.40;99.90
64855;DHT22;51321;50.428;8.378;2023-06-10T03:22:37;14.40;99.90
64855;DHT22;51321;50.428;8.378;2023-06-10T03:25:22;14.60;99.90
64855;DHT22;51321;50.428;8.378;2023-06-10T03:28:06;14.70;99.90
64855;DHT22;51321;50.428;8.378;2023-06-10T03:30:49;14.50;99.90
64855;DHT22;51321;50.428;8.378;2023-06-10T03:33:33;14.40;99.90
64855;DHT22;51321;50.428;8.378;2023-06-10T03:36:15;14.30;99.90
64855;DHT22;51321;50.428;8.378;2023-06-10T03:38:57;14.40;99.90
64855;DHT22;51321;50.428;8.378;2023-06-10T03:41:39;14.60;99.90
64855;DHT22;51321;50.428;8.378;2023-06-10T03:44:20;14.70;99.90
64855;DHT22;51321;50.428;8.378;2023-06-10T03:47:01;14.80;99.90
64855;DHT22;51321;50.428;8.378;2023-06-10T03:49:45;14.70;99.90
64855;DHT22;51321;50.428;8.378;2023-06-10T03:52:26;14.70;99.90
64855;DHT22;51321;50.428;8.378;2023-06-10T03:55:08;14.80;99.90
64855;DHT22;51321;50.428;8.378;2023-06-10T03:57:51;15.00;99.90
64855;DHT22;51321;50.428;8.378;2023-06-10T04:00:32;15.20;99.90
64855;DHT22;51321;50.428;8.378;2023-06-10T04:03:21;15.40;99.90
64855;DHT22;51321;50.428;8.378;2023-06-10T04:06:06;15.50;99.90
64855;DHT22;51321;50.428;8.378;2023-06-10T04:08:47;15.50;99.90
64855;DHT22;51321;50.428;8.378;2023-06-10T04:11:29;15.50;99.90
64855;DHT22;51321;50.428;8.378;2023-06-10T04:14:11;15.50;99.90
64855;DHT22;51321;50.428;8.378;2023-06-10T04:16:53;15.50;99.90
64855;DHT22;51321;50.428;8.378;2023-06-10T04:19:36;15.50;99.90
64855;DHT22;51321;50.428;8.378;2023-06-10T04:22:19;15.70;99.90
64855;DHT22;51321;50.428;8.378;2023-06-10T04:25:00;15.50;99.90
64855;DHT22;51321;50.428;8.378;2023-06-10T04:27:41;15.60;99.90
64855;DHT22;51321;50.428;8.378;2023-06-10T04:30:23;15.50;99.90
64855;DHT22;51321;50.428;8.378;2023-06-10T04:33:05;15.60;99.90
64855;DHT22;51321;50.428;8.378;2023-06-10T04:35:49;15.90;99.90
64855;DHT22;51321;50.428;8.378;2023-06-10T04:38:36;16.00;99.90
64855;DHT22;51321;50.428;8.378;2023-06-10T04:41:17;15.90;99.90
64855;DHT22;51321;50.428;8.378;2023-06-10T04:43:58;15.90;99.90
64855;DHT22;51321;50.428;8.378;2023-06-10T04:46:39;16.00;99.90
64855;DHT22;51321;50.428;8.378;2023-06-10T04:49:20;16.10;99.90
64855;DHT22;51321;50.428;8.378;2023-06-10T04:52:02;16.20;99.90
64855;DHT22;51321;50.428;8.378;2023-06-10T04:54:50;16.40;99.90
64855;DHT22;51321;50.428;8.378;2023-06-10T04:57:31;16.50;99.90
64855;DHT22;51321;50.428;8.378;2023-06-10T05:00:12;16.50;99.90
64855;DHT22;51321;50.428;8.378;2023-06-10T05:02:54;16.50;99.90
64855;DHT22;51321;50.428;8.378;2023-06-10T05:05:35;16.60;99.90
64855;DHT22;51321;50.428;8.378;2023-06-10T05:08:16;16.60;99.90
64855;DHT22;51321;50.428;8.378;2023-06-10T05:10:59;16.80;99.90
64855;DHT22;51321;50.428;8.378;2023-06-10T05:13:41;16.90;99.90
64855;DHT22;51321;50.428;8.378;2023-06-10T05:16:22;16.90;99.90
64855;DHT22;51321;50.428;8.378;2023-06-10T05:19:04;17.10;99.90
64855;DHT22;51321;50.428;8.378;2023-06-10T05:21:45;17.10;99.90
64855;DHT22;51321;50.428;8.378;2023-06-10T05:24:27;17.10;99.90
64855;DHT22;51321;50.428;8.378;2023-06-10T05:27:10;17.20;99.90
64855;DHT22;51321;50.428;8.378;2023-06-10T05:29:51;17.40;99.90
64855;DHT22;51321;50.428;8.378;2023-06-10T05:32:32;17.50;99.90
64855;DHT22;51321;50.428;8.378;2023-06-10T05:35:14;17.70;99.90
64855;DHT22;51321;50.428;8.378;2023-06-10T05:37:54;17.80;99.90
64855;DHT22;51321;50.428;8.378;2023-06-10T05:40:36;17.80;99.90
64855;DHT22;51321;50.428;8.378;2023-06-10T05:43:19;18.00;99.90
64855;DHT22;51321;50.428;8.378;2023-06-10T05:46:00;18.10;99.90
64855;DHT22;51321;50.428;8.378;2023-06-10T05:48:41;18.20;99.90
64855;DHT22;51321;50.428;8.378;2023-06-10T05:51:22;18.40;99.90
64855;DHT22;51321;50.428;8.378;2023-06-10T05:54:05;18.50;99.90
64855;DHT22;51321;50.428;8.378;2023-06-10T05:56:45;18.80;99.90
64855;DHT22;51321;50.428;8.378;2023-06-10T05:59:28;18.90;99.90
64855;DHT22;51321;50.428;8.378;2023-06-10T06:02:09;18.90;99.90
64855;DHT22;51321;50.428;8.378;2023-06-10T06:04:49;18.90;99.90
64855;DHT22;51321;50.428;8.378;2023-06-10T06:07:30;19.10;99.90
64855;DHT22;51321;50.428;8.378;2023-06-10T06:10:12;19.30;99.90
64855;DHT22;51321;50.428;8.378;2023-06-10T06:12:52;19.40;99.90
64855;DHT22;51321;50.428;8.378;2023-06-10T06:15:35;19.80;99.90
64855;DHT22;51321;50.428;8.378;2023-06-10T06:18:16;19.90;99.90
64855;DHT22;51321;50.428;8.378;2023-06-10T06:20:57;20.20;99.90
64855;DHT22;51321;50.428;8.378;2023-06-10T06:23:39;20.60;99.20
64855;DHT22;51321;50.428;8.378;2023-06-10T06:26:19;20.70;98.40
64855;DHT22;51321;50.428;8.378;2023-06-10T06:29:01;20.70;97.80
64855;DHT22;51321;50.428;8.378;2023-06-10T06:31:43;21.00;97.90
64855;DHT22;51321;50.428;8.378;2023-06-10T06:34:24;21.20;97.50
64855;DHT22;51321;50.428;8.378;2023-06-10T06:37:06;21.30;96.60
64855;DHT22;51321;50.428;8.378;2023-06-10T06:39:50;21.30;97.20
64855;DHT22;51321;50.428;8.378;2023-06-10T06:42:31;21.50;97.20
64855;DHT22;51321;50.428;8.378;2023-06-10T06:45:22;21.70;95.70
64855;DHT22;51321;50.428;8.378;2023-06-10T06:48:05;21.70;95.40
64855;DHT22;51321;50.428;8.378;2023-06-10T06:50:46;21.50;95.30
64855;DHT22;51321;50.428;8.378;2023-06-10T06:53:27;21.50;95.20
64855;DHT22;51321;50.428;8.378;2023-06-10T06:56:08;21.60;95.20
64855;DHT22;51321;50.428;8.378;2023-06-10T06:58:50;21.80;95.60
64855;DHT22;51321;50.428;8.378;2023-06-10T07:01:32;22.20;95.30
64855;DHT22;51321;50.428;8.378;2023-06-10T07:04:16;22.50;95.10
64855;DHT22;51321;50.428;8.378;2023-06-10T07:06:59;22.60;94.70
64855;DHT22;51321;50.428;8.378;2023-06-10T07:09:40;22.60;94.30
64855;DHT22;51321;50.428;8.378;2023-06-10T07:12:20;22.50;93.80
64855;DHT22;51321;50.428;8.378;2023-06-10T07:15:03;22.20;93.60
64855;DHT22;51321;50.428;8.378;2023-06-10T07:17:44;22.20;94.40
64855;DHT22;51321;50.428;8.378;2023-06-10T07:20:27;22.50;94.40
64855;DHT22;51321;50.428;8.378;2023-06-10T07:23:08;22.70;94.00
64855;DHT22;51321;50.428;8.378;2023-06-10T07:25:49;22.80;94.30
64855;DHT22;51321;50.428;8.378;2023-06-10T07:28:31;23.00;93.40
64855;DHT22;51321;50.428;8.378;2023-06-10T07:31:12;23.10;94.00
64855;DHT22;51321;50.428;8.378;2023-06-10T07:33:54;23.30;93.40
64855;DHT22;51321;50.428;8.378;2023-06-10T07:36:36;23.50;92.50
64855;DHT22;51321;50.428;8.378;2023-06-10T07:39:17;23.40;93.20
64855;DHT22;51321;50.428;8.378;2023-06-10T07:42:00;23.50;92.80
64855;DHT22;51321;50.428;8.378;2023-06-10T07:44:42;23.60;92.40
64855;DHT22;51321;50.428;8.378;2023-06-10T07:47:23;23.70;92.80
64855;DHT22;51321;50.428;8.378;2023-06-10T07:50:05;23.80;92.30
64855;DHT22;51321;50.428;8.378;2023-06-10T07:52:48;23.90;92.40
64855;DHT22;51321;50.428;8.378;2023-06-10T07:55:29;24.10;92.90
64855;DHT22;51321;50.428;8.378;2023-06-10T07:58:10;24.10;91.50
64855;DHT22;51321;50.428;8.378;2023-06-10T08:00:52;24.20;91.60
64855;DHT22;51321;50.428;8.378;2023-06-10T08:03:34;24.20;91.30
64855;DHT22;51321;50.428;8.378;2023-06-10T08:06:16;24.30;91.70
64855;DHT22;51321;50.428;8.378;2023-06-10T08:08:59;24.40;91.90
64855;DHT22;51321;50.428;8.378;2023-06-10T08:11:40;24.50;91.40
64855;DHT22;51321;50.428;8.378;2023-06-10T08:14:21;24.70;91.10
64855;DHT22;51321;50.428;8.378;2023-06-10T08:17:04;24.60;91.70
64855;DHT22;51321;50.428;8.378;2023-06-10T08:19:46;24.60;91.40
64855;DHT22;51321;50.428;8.378;2023-06-10T08:22:28;24.70;90.40
64855;DHT22;51321;50.428;8.378;2023-06-10T08:25:12;25.00;90.40
64855;DHT22;51321;50.428;8.378;2023-06-10T08:27:55;24.90;90.20
64855;DHT22;51321;50.428;8.378;2023-06-10T08:30:37;25.00;90.30
64855;DHT22;51321;50.428;8.378;2023-06-10T08:33:18;25.00;90.80
64855;DHT22;51321;50.428;8.378;2023-06-10T08:35:59;25.00;91.20
64855;DHT22;51321;50.428;8.378;2023-06-10T08:38:40;25.10;90.20
64855;DHT22;51321;50.428;8.378;2023-06-10T08:41:25;25.30;90.60
64855;DHT22;51321;50.428;8.378;2023-06-10T08:44:10;25.30;90.40
64855;DHT22;51321;50.428;8.378;2023-06-10T08:46:56;25.20;89.30
64855;DHT22;51321;50.428;8.378;2023-06-10T08:49:42;25.20;89.20
64855;DHT22;51321;50.428;8.378;2023-06-10T08:52:25;25.20;89.30
64855;DHT22;51321;50.428;8.378;2023-06-10T08:55:12;25.30;90.20
64855;DHT22;51321;50.428;8.378;2023-06-10T08:57:56;25.60;90.50
64855;DHT22;51321;50.428;8.378;2023-06-10T09:00:36;25.60;89.50
64855;DHT22;51321;50.428;8.378;2023-06-10T09:03:18;25.50;90.20
64855;DHT22;51321;50.428;8.378;2023-06-10T09:05:59;25.30;88.00
64855;DHT22;51321;50.428;8.378;2023-06-10T09:08:41;25.30;89.60
64855;DHT22;51321;50.428;8.378;2023-06-10T09:11:26;25.50;88.20
64855;DHT22;51321;50.428;8.378;2023-06-10T09:14:08;25.60;89.70
64855;DHT22;51321;50.428;8.378;2023-06-10T09:16:52;25.70;87.40
64855;DHT22;51321;50.428;8.378;2023-06-10T09:19:37;25.70;90.20
64855;DHT22;51321;50.428;8.378;2023-06-10T09:22:19;26.00;89.30
64855;DHT22;51321;50.428;8.378;2023-06-10T09:25:03;26.00;85.80
64855;DHT22;51321;50.428;8.378;2023-06-10T09:27:47;26.10;85.60
64855;DHT22;51321;50.428;8.378;2023-06-10T09:30:38;26.30;86.70
64855;DHT22;51321;50.428;8.378;2023-06-10T09:33:19;26.40;83.80
64855;DHT22;51321;50.428;8.378;2023-06-10T09:36:02;26.20;83.40
64855;DHT22;51321;50.428;8.378;2023-06-10T09:38:46;26.10;83.10
64855;DHT22;51321;50.428;8.378;2023-06-10T09:41:32;26.00;86.00
64855;DHT22;51321;50.428;8.378;2023-06-10T09:44:15;26.10;85.70
64855;DHT22;51321;50.428;8.378;2023-06-10T09:46:58;26.10;85.70
64855;DHT22;51321;50.428;8.378;2023-06-10T09:49:40;26.20;84.90
64855;DHT22;51321;50.428;8.378;2023-06-10T09:52:22;26.20;84.80
64855;DHT22;51321;50.428;8.378;2023-06-10T09:55:04;26.50;85.90
64855;DHT22;51321;50.428;8.378;2023-06-10T09:57:49;26.60;84.10
64855;DHT22;51321;50.428;8.378;2023-06-10T10:00:32;26.60;85.00
64855;DHT22;51321;50.428;8.378;2023-06-10T10:03:22;27.00;84.60
64855;DHT22;51321;50.428;8.378;2023-06-10T10:06:03;27.20;82.80
64855;DHT22;51321;50.428;8.378;2023-06-10T10:08:46;27.10;82.60
64855;DHT22;51321;50.428;8.378;2023-06-10T10:11:28;27.00;84.00
64855;DHT22;51321;50.428;8.378;2023-06-10T10:14:11;27.20;84.70
64855;DHT22;51321;50.428;8.378;2023-06-10T10:16:54;27.10;80.60
64855;DHT22;51321;50.428;8.378;2023-06-10T10:19:47;27.10;80.20
64855;DHT22;51321;50.428;8.378;2023-06-10T10:22:35;27.00;81.90
64855;DHT22;51321;50.428;8.378;2023-06-10T10:25:23;26.80;80.40
64855;DHT22;51321;50.428;8.378;2023-06-10T10:28:08;26.70;82.10
64855;DHT22;51321;50.428;8.378;2023-06-10T10:30:54;27.00;81.50
64855;DHT22;51321;50.428;8.378;2023-06-10T10:33:45;27.20;82.10
64855;DHT22;51321;50.428;8.378;2023-06-10T10:36:31;27.40;80.90
64855;DHT22;51321;50.428;8.378;2023-06-10T10:39:13;27.30;80.20
64855;DHT22;51321;50.428;8.378;2023-06-10T10:41:56;27.10;80.20
64855;DHT22;51321;50.428;8.378;2023-06-10T10:44:39;27.40;79.90
64855;DHT22;51321;50.428;8.378;2023-06-10T10:47:21;27.30;79.70
64855;DHT22;51321;50.428;8.378;2023-06-10T10:50:13;26.90;81.10
64855;DHT22;51321;50.428;8.378;2023-06-10T10:52:58;27.00;81.30
64855;DHT22;51321;50.428;8.378;2023-06-10T10:55:40;27.30;79.50
64855;DHT22;51321;50.428;8.378;2023-06-10T10:58:24;27.20;79.30
64855;DHT22;51321;50.428;8.378;2023-06-10T11:01:15;27.10;80.10
64855;DHT22;51321;50.428;8.378;2023-06-10T11:03:56;27.00;80.00
64855;DHT22;51321;50.428;8.378;2023-06-10T11:06:38;27.20;81.40
64855;DHT22;51321;50.428;8.378;2023-06-10T11:09:28;27.50;79.20
64855;DHT22;51321;50.428;8.378;2023-06-10T11:12:09;27.70;77.80
64855;DHT22;51321;50.428;8.378;2023-06-10T11:14:54;27.80;79.40
64855;DHT22;51321;50.428;8.378;2023-06-10T11:17:36;28.00;73.50
64855;DHT22;51321;50.428;8.378;2023-06-10T11:20:44;28.30;74.40
64855;DHT22;51321;50.428;8.378;2023-06-10T11:23:39;28.20;74.40
64855;DHT22;51321;50.428;8.378;2023-06-10T11:26:30;28.30;72.70
64855;DHT22;51321;50.428;8.378;2023-06-10T11:29:15;28.60;72.50
64855;DHT22;51321;50.428;8.378;2023-06-10T11:31:56;28.70;73.30
64855;DHT22;51321;50.428;8.378;2023-06-10T11:34:37;28.40;71.70
64855;DHT22;51321;50.428;8.378;2023-06-10T11:37:19;28.40;72.00
64855;DHT22;51321;50.428;8.378;2023-06-10T11:40:00;28.20;70.70
64855;DHT22;51321;50.428;8.378;2023-06-10T11:42:43;28.20;69.20
64855;DHT22;51321;50.428;8.378;2023-06-10T11:45:25;28.30;67.10
64855;DHT22;51321;50.428;8.378;2023-06-10T11:48:06;27.90;68.40
64855;DHT22;51321;50.428;8.378;2023-06-10T11:50:47;28.10;67.90
64855;DHT22;51321;50.428;8.378;2023-06-10T11:53:28;28.20;67.70
64855;DHT22;51321;50.428;8.378;2023-06-10T11:56:09;28.70;69.10
64855;DHT22;51321;50.428;8.378;2023-06-10T11:58:54;28.90;66.30
64855;DHT22;51321;50.428;8.378;2023-06-10T12:01:36;29.00;66.20
64855;DHT22;51321;50.428;8.378;2023-06-10T12:04:19;28.80;64.50
64855;DHT22;51321;50.428;8.378;2023-06-10T12:07:01;28.60;66.90
64855;DHT22;51321;50.428;8.378;2023-06-10T12:09:42;28.90;63.00
64855;DHT22;51321;50.428;8.378;2023-06-10T12:12:23;28.60;64.40
64855;DHT22;51321;50.428;8.378;2023-06-10T12:15:09;28.60;65.20
64855;DHT22;51321;50.428;8.378;2023-06-10T12:17:50;29.10;63.10
64855;DHT22;51321;50.428;8.378;2023-06-10T12:20:32;28.80;62.70
64855;DHT22;51321;50.428;8.378;2023-06-10T12:23:13;28.40;62.50
64855;DHT22;51321;50.428;8.378;2023-06-10T12:25:56;28.40;64.10
64855;DHT22;51321;50.428;8.378;2023-06-10T12:28:37;29.00;64.90
64855;DHT22;51321;50.428;8.378;2023-06-10T12:31:20;29.40;62.50
64855;DHT22;51321;50.428;8.378;2023-06-10T12:34:19;29.80;61.00
64855;DHT22;51321;50.428;8.378;2023-06-10T12:37:04;29.40;62.40
64855;DHT22;51321;50.428;8.378;2023-06-10T12:39:51;29.50;62.30
64855;DHT22;51321;50.428;8.378;2023-06-10T12:42:33;29.90;61.40
64855;DHT22;51321;50.428;8.378;2023-06-10T12:45:26;29.80;61.50
64855;DHT22;51321;50.428;8.378;2023-06-10T12:48:11;29.40;60.80
64855;DHT22;51321;50.428;8.378;2023-06-10T12:50:53;29.50;61.20
64855;DHT22;51321;50.428;8.378;2023-06-10T12:53:35;30.00;60.80
64855;DHT22;51321;50.428;8.378;2023-06-10T12:56:15;29.70;60.40
64855;DHT22;51321;50.428;8.378;2023-06-10T12:58:57;29.40;61.60
64855;DHT22;51321;50.428;8.378;2023-06-10T13:01:38;29.10;62.00
64855;DHT22;51321;50.428;8.378;2023-06-10T13:04:21;29.10;62.00
64855;DHT22;51321;50.428;8.378;2023-06-10T13:07:03;29.30;61.40
64855;DHT22;51321;50.428;8.378;2023-06-10T13:09:44;29.30;60.10
64855;DHT22;51321;50.428;8.378;2023-06-10T13:12:28;29.30;60.80
64855;DHT22;51321;50.428;8.378;2023-06-10T13:15:10;29.40;63.10
64855;DHT22;51321;50.428;8.378;2023-06-10T13:17:52;29.70;61.40
64855;DHT22;51321;50.428;8.378;2023-06-10T13:20:38;29.70;62.30
64855;DHT22;51321;50.428;8.378;2023-06-10T13:23:19;29.30;61.50
64855;DHT22;51321;50.428;8.378;2023-06-10T13:26:01;29.50;62.80
64855;DHT22;51321;50.428;8.378;2023-06-10T13:28:46;29.80;61.90
64855;DHT22;51321;50.428;8.378;2023-06-10T13:31:27;29.50;61.50
64855;DHT22;51321;50.428;8.378;2023-06-10T13:34:08;28.90;61.90
64855;DHT22;51321;50.428;8.378;2023-06-10T13:36:51;28.50;62.60
64855;DHT22;51321;50.428;8.378;2023-06-10T13:39:32;28.30;63.30
64855;DHT22;51321;50.428;8.378;2023-06-10T13:42:14;28.90;63.40
64855;DHT22;51321;50.428;8.378;2023-06-10T13:44:55;29.40;63.40
64855;DHT22;51321;50.428;8.378;2023-06-10T13:47:37;29.60;61.30
64855;DHT22;51321;50.428;8.378;2023-06-10T13:50:19;29.40;62.70
64855;DHT22;51321;50.428;8.378;2023-06-10T13:53:01;29.30;63.30
64855;DHT22;51321;50.428;8.378;2023-06-10T13:55:42;29.10;63.60
64855;DHT22;51321;50.428;8.378;2023-06-10T13:58:24;28.20;63.60
64855;DHT22;51321;50.428;8.378;2023-06-10T14:01:05;27.60;64.00
64855;DHT22;51321;50.428;8.378;2023-06-10T14:03:47;27.80;65.70
64855;DHT22;51321;50.428;8.378;2023-06-10T14:06:28;28.30;65.60
64855;DHT22;51321;50.428;8.378;2023-06-10T14:09:12;28.80;64.40
64855;DHT22;51321;50.428;8.378;2023-06-10T14:11:53;29.00;62.10
64855;DHT22;51321;50.428;8.378;2023-06-10T14:14:35;28.90;62.90
64855;DHT22;51321;50.428;8.378;2023-06-10T14:17:16;28.90;62.80
64855;DHT22;51321;50.428;8.378;2023-06-10T14:19:57;29.20;63.80
64855;DHT22;51321;50.428;8.378;2023-06-10T14:22:38;29.20;62.00
64855;DHT22;51321;50.428;8.378;2023-06-10T14:25:21;29.30;63.00
64855;DHT22;51321;50.428;8.378;2023-06-10T14:28:02;29.20;62.00
64855;DHT22;51321;50.428;8.378;2023-06-10T14:30:44;29.00;63.30
64855;DHT22;51321;50.428;8.378;2023-06-10T14:33:25;29.30;62.60
64855;DHT22;51321;50.428;8.378;2023-06-10T14:36:06;29.40;63.10
64855;DHT22;51321;50.428;8.378;2023-06-10T14:38:48;29.20;62.00
64855;DHT22;51321;50.428;8.378;2023-06-10T14:41:30;29.60;61.70
64855;DHT22;51321;50.428;8.378;2023-06-10T14:44:12;29.60;62.90
64855;DHT22;51321;50.428;8.378;2023-06-10T14:46:53;29.80;61.30
64855;DHT22;51321;50.428;8.378;2023-06-10T14:49:34;30.10;62.10
64855;DHT22;51321;50.428;8.378;2023-06-10T14:52:16;30.60;61.40
64855;DHT22;51321;50.428;8.378;2023-06-10T14:54:58;30.70;60.50
64855;DHT22;51321;50.428;8.378;2023-06-10T14:57:40;30.20;60.30
64855;DHT22;51321;50.428;8.378;2023-06-10T15:00:22;30.20;60.90
64855;DHT22;51321;50.428;8.378;2023-06-10T15:03:04;30.40;61.20
64855;DHT22;51321;50.428;8.378;2023-06-10T15:05:45;30.40;60.40
64855;DHT22;51321;50.428;8.378;2023-06-10T15:08:29;30.20;60.90
64855;DHT22;51321;50.428;8.378;2023-06-10T15:11:10;30.60;60.10
64855;DHT22;51321;50.428;8.378;2023-06-10T15:13:54;31.00;60.10
64855;DHT22;51321;50.428;8.378;2023-06-10T15:16:35;31.30;59.20
64855;DHT22;51321;50.428;8.378;2023-06-10T15:19:16;31.50;59.90
64855;DHT22;51321;50.428;8.378;2023-06-10T15:22:00;31.50;61.20
64855;DHT22;51321;50.428;8.378;2023-06-10T15:24:41;31.70;59.40
64855;DHT22;51321;50.428;8.378;2023-06-10T15:27:22;31.00;59.10
64855;DHT22;51321;50.428;8.378;2023-06-10T15:30:06;30.70;60.10
64855;DHT22;51321;50.428;8.378;2023-06-10T15:32:47;30.80;60.60
64855;DHT22;51321;50.428;8.378;2023-06-10T15:35:28;31.40;59.80
64855;DHT22;51321;50.428;8.378;2023-06-10T15:38:12;31.40;59.10
64855;DHT22;51321;50.428;8.378;2023-06-10T15:40:53;31.50;58.70
64855;DHT22;51321;50.428;8.378;2023-06-10T15:43:35;31.20;59.10
64855;DHT22;51321;50.428;8.378;2023-06-10T15:46:17;31.40;59.40
64855;DHT22;51321;50.428;8.378;2023-06-10T15:48:59;32.00;58.80
64855;DHT22;51321;50.428;8.378;2023-06-10T15:51:40;31.90;59.10
64855;DHT22;51321;50.428;8.378;2023-06-10T15:54:22;31.20;59.10
64855;DHT22;51321;50.428;8.378;2023-06-10T15:57:05;30.50;61.00
64855;DHT22;51321;50.428;8.378;2023-06-10T15:59:49;29.60;62.00
64855;DHT22;51321;50.428;8.378;2023-06-10T16:02:32;28.80;62.30
64855;DHT22;51321;50.428;8.378;2023-06-10T16:05:13;28.40;63.00
64855;DHT22;51321;50.428;8.378;2023-06-10T16:07:54;28.10;64.20
64855;DHT22;51321;50.428;8.378;2023-06-10T16:10:36;28.10;64.20
64855;DHT22;51321;50.428;8.378;2023-06-10T16:13:18;27.90;64.90
64855;DHT22;51321;50.428;8.378;2023-06-10T16:15:59;27.70;65.30
64855;DHT22;51321;50.428;8.378;2023-06-10T16:18:41;27.70;65.50
64855;DHT22;51321;50.428;8.378;2023-06-10T16:21:23;27.60;65.40
64855;DHT22;51321;50.428;8.378;2023-06-10T16:24:05;27.50;65.60
64855;DHT22;51321;50.428;8.378;2023-06-10T16:26:46;27.50;64.90
64855;DHT22;51321;50.428;8.378;2023-06-10T16:29:28;27.40;65.00
64855;DHT22;51321;50.428;8.378;2023-06-10T16:32:09;27.40;65.50
64855;DHT22;51321;50.428;8.378;2023-06-10T16:34:52;27.40;66.10
64855;DHT22;51321;50.428;8.378;2023-06-10T16:37:33;27.40;67.00
64855;DHT22;51321;50.428;8.378;2023-06-10T16:40:15;27.40;65.70
64855;DHT22;51321;50.428;8.378;2023-06-10T16:42:56;27.20;66.40
64855;DHT22;51321;50.428;8.378;2023-06-10T16:45:37;27.10;66.60
64855;DHT22;51321;50.428;8.378;2023-06-10T16:48:19;27.20;67.90
64855;DHT22;51321;50.428;8.378;2023-06-10T16:51:01;27.20;66.90
64855;DHT22;51321;50.428;8.378;2023-06-10T16:53:42;27.10;67.10
64855;DHT22;51321;50.428;8.378;2023-06-10T16:56:24;27.10;66.60
64855;DHT22;51321;50.428;8.378;2023-06-10T16:59:06;27.10;67.80
64855;DHT22;51321;50.428;8.378;2023-06-10T17:01:48;27.00;67.80
64855;DHT22;51321;50.428;8.378;2023-06-10T17:04:29;27.00;68.00
64855;DHT22;51321;50.428;8.378;2023-06-10T17:07:12;27.00;68.70